Time;durP1;ratioP1;P1;durP2;ratioP2;P2;SDS_P1;SDS_P2;PMS_P1;PMS_P2;Temp;Humidity;BMP_temperature;BMP_pressure;BME280_temperature;BME280_humidity;BME280_pressure;Samples;Min_cycle;Max_cycle;Signal;HPM_P1;HPM_P2
2023/04/11 00:01:50;;;;;;;7.43;2.83;;;;;;;;;;5031420;28;20053;-64
2023/04/11 00:04:20;;;;;;;6.80;2.60;;;;;;;;;;5031029;28;20552;-65
2023/04/11 00:06:50;;;;;;;9.68;2.60;;;;;;;;;;5031080;28;20056;-65
2023/04/11 00:09:20;;;;;;;6.13;2.35;;;;;;;;;;4995918;28;20049;-64
2023/04/11 00:11:50;;;;;;;10.10;2.75;;;;;;;;;;5013832;28;20057;-65
2023/04/11 00:14:20;;;;;;;7.90;3.15;;;;;;;;;;5031020;28;20050;-65
2023/04/11 00:16:52;;;;;;;5.50;2.97;;;;;;;;;;5030457;28;20493;-65
2023/04/11 00:19:24;;;;;;;6.50;2.63;;;;;;;;;;4996236;28;20577;-65
2023/04/11 00:21:59;;;;;;;9.45;3.03;;;;;;;;;;4995889;28;20057;-64
2023/04/11 00:24:29;;;;;;;5.97;2.40;;;;;;;;;;5030273;28;20041;-65
2023/04/11 00:26:58;;;;;;;9.20;2.58;;;;;;;;;;5030863;28;20045;-64
2023/04/11 00:29:29;;;;;;;6.47;2.63;;;;;;;;;;4991524;28;20046;-65
2023/04/11 00:31:59;;;;;;;7.75;2.60;;;;;;;;;;4975766;28;20625;-65
2023/04/11 00:34:30;;;;;;;7.00;2.63;;;;;;;;;;5008626;28;20522;-64
2023/04/11 00:37:00;;;;;;;7.72;2.63;;;;;;;;;;4975175;28;20061;-64
2023/04/11 00:39:33;;;;;;;13.35;3.00;;;;;;;;;;4993607;28;20415;-64
2023/04/11 00:42:05;;;;;;;9.90;2.83;;;;;;;;;;5012235;28;20050;-64
2023/04/11 00:44:36;;;;;;;8.60;2.92;;;;;;;;;;4963342;28;20418;-65
2023/04/11 00:47:06;;;;;;;8.98;2.83;;;;;;;;;;4962825;28;20097;-64
2023/04/11 00:49:37;;;;;;;6.43;2.53;;;;;;;;;;5011484;28;20052;-64
2023/04/11 00:52:07;;;;;;;10.75;3.22;;;;;;;;;;4962692;28;20049;-64
2023/04/11 00:54:37;;;;;;;9.10;3.13;;;;;;;;;;4979120;28;20165;-65
2023/04/11 00:57:08;;;;;;;5.65;2.90;;;;;;;;;;4962615;28;20046;-64
2023/04/11 00:59:39;;;;;;;9.98;3.10;;;;;;;;;;4971792;28;20047;-64
2023/04/11 01:02:09;;;;;;;5.68;2.58;;;;;;;;;;4918958;28;20051;-64
2023/04/11 01:04:39;;;;;;;6.60;2.72;;;;;;;;;;4962661;28;20447;-65
2023/04/11 01:07:11;;;;;;;8.75;3.10;;;;;;;;;;4893311;29;20067;-64
2023/04/11 01:09:42;;;;;;;7.60;2.78;;;;;;;;;;4901782;29;20048;-64
2023/04/11 01:12:13;;;;;;;5.00;2.70;;;;;;;;;;4885570;29;20545;-64
2023/04/11 01:14:46;;;;;;;6.65;2.67;;;;;;;;;;4906607;29;20064;-64
2023/04/11 01:17:16;;;;;;;7.78;3.80;;;;;;;;;;4885730;29;20048;-64
2023/04/11 01:19:46;;;;;;;7.85;3.17;;;;;;;;;;4883249;29;20075;-65
2023/04/11 01:22:19;;;;;;;8.45;3.10;;;;;;;;;;4869460;29;20545;-64
2023/04/11 01:24:49;;;;;;;8.02;3.58;;;;;;;;;;4904538;29;20066;-65
2023/04/11 01:27:19;;;;;;;6.07;2.80;;;;;;;;;;4923612;29;20056;-64
2023/04/11 01:29:49;;;;;;;6.68;3.10;;;;;;;;;;4919030;29;20056;-64
2023/04/11 01:32:19;;;;;;;7.43;2.85;;;;;;;;;;4931353;29;20544;-64
2023/04/11 01:34:52;;;;;;;6.68;3.13;;;;;;;;;;4933212;29;20056;-65
2023/04/11 01:37:23;;;;;;;9.77;3.33;;;;;;;;;;4884601;29;20045;-64
2023/04/11 01:39:53;;;;;;;6.50;2.80;;;;;;;;;;4853573;29;20535;-64
2023/04/11 01:42:23;;;;;;;7.13;2.88;;;;;;;;;;4821010;29;20057;-64
2023/04/11 01:44:54;;;;;;;8.15;3.22;;;;;;;;;;4810173;29;20572;-64
2023/04/11 01:47:24;;;;;;;6.68;3.72;;;;;;;;;;4806090;29;20061;-64
2023/04/11 01:49:54;;;;;;;5.90;3.15;;;;;;;;;;4830851;29;20050;-64
2023/04/11 01:52:25;;;;;;;6.75;2.88;;;;;;;;;;4823879;29;20050;-64
2023/04/11 01:54:55;;;;;;;6.55;3.42;;;;;;;;;;4821657;29;20174;-64
2023/04/11 01:57:25;;;;;;;11.40;3.60;;;;;;;;;;4815288;29;20065;-64
2023/04/11 01:59:55;;;;;;;9.02;3.60;;;;;;;;;;4809180;29;20761;-65
2023/04/11 02:02:25;;;;;;;14.35;3.67;;;;;;;;;;4838483;29;20058;-64
2023/04/11 02:04:55;;;;;;;15.10;4.05;;;;;;;;;;4812664;29;20623;-65
2023/04/11 02:07:24;;;;;;;9.98;4.35;;;;;;;;;;4841264;29;20073;-64
2023/04/11 02:09:55;;;;;;;9.18;4.20;;;;;;;;;;4839304;29;20503;-65
2023/04/11 02:12:26;;;;;;;7.65;4.10;;;;;;;;;;4815297;29;20066;-64
2023/04/11 02:14:56;;;;;;;8.98;4.32;;;;;;;;;;4797546;29;20058;-65
2023/04/11 02:17:29;;;;;;;11.52;4.45;;;;;;;;;;4762905;29;20140;-65
2023/04/11 02:19:59;;;;;;;;;;;;;;;;;;4811351;29;20536;-65
2023/04/11 02:22:30;;;;;;;11.10;4.20;;;;;;;;;;4802304;29;19925;-66
2023/04/11 02:24:59;;;;;;;6.50;3.47;;;;;;;;;;4802354;29;20648;-65
2023/04/11 02:27:31;;;;;;;10.77;4.13;;;;;;;;;;4828005;29;20743;-64
2023/04/11 02:30:04;;;;;;;10.95;4.28;;;;;;;;;;4857070;29;20045;-64
2023/04/11 02:32:39;;;;;;;10.13;4.05;;;;;;;;;;4842074;29;20057;-64
2023/04/11 02:35:09;;;;;;;11.30;4.10;;;;;;;;;;4857729;29;20061;-65
2023/04/11 02:37:41;;;;;;;;;;;;;;;;;;4859344;29;20061;-64
2023/04/11 02:40:10;;;;;;;13.02;4.22;;;;;;;;;;4857309;29;19931;-64
2023/04/11 02:42:41;;;;;;;9.90;4.28;;;;;;;;;;4857122;29;20068;-65
2023/04/11 02:45:11;;;;;;;10.85;4.63;;;;;;;;;;4857342;29;20057;-64
2023/04/11 02:47:42;;;;;;;15.23;4.30;;;;;;;;;;4857011;29;20064;-64
2023/04/11 02:50:12;;;;;;;10.27;4.07;;;;;;;;;;4820736;29;20058;-65
2023/04/11 02:52:48;;;;;;;15.80;4.60;;;;;;;;;;4820395;29;20062;-65
2023/04/11 02:55:22;;;;;;;13.57;4.85;;;;;;;;;;4784148;30;20098;-65
2023/04/11 02:57:52;;;;;;;11.60;4.25;;;;;;;;;;4784128;30;20055;-65
2023/04/11 03:00:23;;;;;;;9.05;3.78;;;;;;;;;;4784329;30;20055;-65
2023/04/11 03:03:02;;;;;;;9.15;3.85;;;;;;;;;;4775638;30;20074;-65
2023/04/11 03:05:38;;;;;;;8.32;3.50;;;;;;;;;;4784069;30;20063;-65
2023/04/11 03:08:08;;;;;;;9.13;4.05;;;;;;;;;;4783895;29;20084;-65
2023/04/11 03:10:44;;;;;;;9.15;4.40;;;;;;;;;;4751582;30;20056;-65
2023/04/11 03:13:14;;;;;;;8.95;3.72;;;;;;;;;;4736236;30;20544;-65
2023/04/11 03:15:45;;;;;;;8.60;4.22;;;;;;;;;;4771761;29;20409;-65
2023/04/11 03:18:17;;;;;;;10.07;4.72;;;;;;;;;;4739439;30;20502;-65
2023/04/11 03:20:49;;;;;;;9.43;4.22;;;;;;;;;;4748205;30;20071;-64
2023/04/11 03:23:19;;;;;;;10.85;4.00;;;;;;;;;;4732958;30;20056;-65
2023/04/11 03:25:52;;;;;;;12.88;4.78;;;;;;;;;;4721358;30;20514;-65
2023/04/11 03:28:23;;;;;;;11.43;4.43;;;;;;;;;;4760378;30;20512;-65
2023/04/11 03:30:53;;;;;;;15.45;5.10;;;;;;;;;;4753623;30;20430;-65
2023/04/11 03:33:25;;;;;;;12.20;4.25;;;;;;;;;;4786214;29;20047;-64
2023/04/11 03:35:57;;;;;;;8.70;3.80;;;;;;;;;;4786680;29;20070;-65
2023/04/11 03:38:28;;;;;;;11.43;4.88;;;;;;;;;;4801303;29;20062;-65
2023/04/11 03:40:58;;;;;;;10.13;4.53;;;;;;;;;;4801689;29;20066;-64
2023/04/11 03:43:27;;;;;;;12.85;5.18;;;;;;;;;;4809544;29;20504;-65
2023/04/11 03:45:58;;;;;;;14.43;5.50;;;;;;;;;;4781511;29;20063;-64
2023/04/11 03:48:40;;;;;;;10.65;4.38;;;;;;;;;;4765326;30;20082;-65
2023/04/11 03:51:10;;;;;;;12.15;4.97;;;;;;;;;;4776147;30;20515;-65
2023/04/11 03:54:00;;;;;;;11.27;4.65;;;;;;;;;;4801718;29;20511;-65
2023/04/11 03:56:35;;;;;;;8.90;4.20;;;;;;;;;;4791401;29;20421;-65
2023/04/11 03:59:07;;;;;;;10.23;4.82;;;;;;;;;;4814403;29;20555;-65
2023/04/11 04:02:00;;;;;;;10.75;3.80;;;;;;;;;;4819533;29;20062;-65
2023/04/11 04:04:32;;;;;;;11.32;4.07;;;;;;;;;;4819550;29;20059;-65
2023/04/11 04:07:28;;;;;;;17.27;4.80;;;;;;;;;;4783590;30;20552;-65
2023/04/11 04:10:14;;;;;;;10.90;4.10;;;;;;;;;;4765189;30;20055;-65
2023/04/11 04:12:49;;;;;;;9.27;4.30;;;;;;;;;;4747653;30;20063;-65
2023/04/11 04:15:24;;;;;;;14.77;5.03;;;;;;;;;;4719122;30;20075;-65
2023/04/11 04:17:55;;;;;;;15.25;6.15;;;;;;;;;;4751060;30;20398;-65
2023/04/11 04:20:38;;;;;;;11.48;5.35;;;;;;;;;;4778951;29;20055;-65
2023/04/11 04:23:12;;;;;;;17.90;5.30;;;;;;;;;;4796351;29;20056;-65
2023/04/11 04:25:53;;;;;;;;;;;;;;;;;;4736499;30;20601;-64
2023/04/11 04:28:26;;;;;;;12.50;5.03;;;;;;;;;;4750762;30;19926;-65
2023/04/11 04:31:01;;;;;;;16.83;5.97;;;;;;;;;;4768643;30;20059;-65
2023/04/11 04:33:41;;;;;;;13.70;4.97;;;;;;;;;;4760056;30;20099;-65
2023/04/11 04:36:19;;;;;;;13.73;5.57;;;;;;;;;;4742177;30;20060;-65
2023/04/11 04:38:50;;;;;;;11.95;5.28;;;;;;;;;;4759061;30;20064;-65
2023/04/11 04:41:23;;;;;;;20.25;5.07;;;;;;;;;;4724988;30;20057;-65
2023/04/11 04:43:58;;;;;;;12.43;4.65;;;;;;;;;;4742670;30;20064;-65
2023/04/11 04:46:39;;;;;;;8.43;3.90;;;;;;;;;;4768444;30;20059;-65
2023/04/11 04:49:09;;;;;;;16.67;4.95;;;;;;;;;;4738893;30;20429;-65
2023/04/11 04:51:39;;;;;;;14.68;5.05;;;;;;;;;;4751240;30;20426;-65
2023/04/11 04:54:09;;;;;;;13.68;5.43;;;;;;;;;;4768111;30;20071;-65
2023/04/11 04:56:40;;;;;;;16.15;5.28;;;;;;;;;;4771623;30;20071;-65
2023/04/11 04:59:14;;;;;;;12.75;4.28;;;;;;;;;;4768862;29;20540;-65
2023/04/11 05:01:52;;;;;;;9.93;4.07;;;;;;;;;;4739746;30;20058;-65
2023/04/11 05:04:29;;;;;;;11.55;4.90;;;;;;;;;;4701400;30;20056;-65
2023/04/11 05:07:00;;;;;;;14.73;5.25;;;;;;;;;;4717725;30;20057;-65
2023/04/11 05:09:32;;;;;;;17.83;5.05;;;;;;;;;;4715066;30;20057;-65
2023/04/11 05:12:25;;;;;;;14.77;6.00;;;;;;;;;;4716533;30;20126;-65
2023/04/11 05:15:00;;;;;;;11.52;4.82;;;;;;;;;;4715238;30;20057;-65
2023/04/11 05:17:32;;;;;;;9.80;5.00;;;;;;;;;;4705464;30;20057;-65
2023/04/11 05:20:05;;;;;;;10.20;4.68;;;;;;;;;;4703398;30;20471;-65
2023/04/11 05:22:36;;;;;;;9.10;3.67;;;;;;;;;;4746008;30;20049;-65
2023/04/11 05:25:08;;;;;;;9.07;3.40;;;;;;;;;;4774381;29;20074;-65
2023/04/11 05:27:40;;;;;;;12.70;3.78;;;;;;;;;;4803557;29;20058;-65
2023/04/11 05:30:12;;;;;;;8.88;3.83;;;;;;;;;;4759785;29;20062;-65
2023/04/11 05:32:42;;;;;;;12.98;4.10;;;;;;;;;;4803153;29;20559;-65
2023/04/11 05:35:12;;;;;;;8.50;3.38;;;;;;;;;;4803644;29;20083;-65
2023/04/11 05:37:47;;;;;;;11.63;4.47;;;;;;;;;;4803243;29;20051;-65
2023/04/11 05:40:18;;;;;;;7.10;3.35;;;;;;;;;;4802586;29;20054;-65
2023/04/11 05:42:49;;;;;;;8.05;3.58;;;;;;;;;;4822143;29;20055;-65
2023/04/11 05:45:19;;;;;;;11.70;3.40;;;;;;;;;;4797034;29;20059;-64
2023/04/11 05:47:49;;;;;;;8.65;3.35;;;;;;;;;;4807901;29;20199;-65
2023/04/11 05:50:19;;;;;;;8.93;3.58;;;;;;;;;;4788638;29;20620;-65
2023/04/11 05:52:49;;;;;;;16.35;3.97;;;;;;;;;;4815503;29;20507;-65
2023/04/11 05:55:19;;;;;;;13.07;4.57;;;;;;;;;;4808010;29;20059;-65
2023/04/11 05:57:48;;;;;;;11.32;4.03;;;;;;;;;;4846163;29;20062;-65
2023/04/11 06:00:19;;;;;;;9.52;4.20;;;;;;;;;;4839972;29;20057;-65
2023/04/11 06:02:50;;;;;;;14.15;5.50;;;;;;;;;;4848326;29;20065;-65
2023/04/11 06:05:20;;;;;;;12.57;5.45;;;;;;;;;;4858197;29;20068;-65
2023/04/11 06:07:51;;;;;;;11.60;5.40;;;;;;;;;;4876768;29;20065;-65
2023/04/11 06:10:20;;;;;;;10.50;4.57;;;;;;;;;;4876709;29;20057;-65
2023/04/11 06:12:50;;;;;;;13.45;4.93;;;;;;;;;;4885534;29;20072;-65
2023/04/11 06:15:21;;;;;;;15.30;5.20;;;;;;;;;;4895270;29;20556;-65
2023/04/11 06:17:52;;;;;;;12.43;4.55;;;;;;;;;;4912733;29;20055;-65
2023/04/11 06:20:22;;;;;;;10.35;4.25;;;;;;;;;;4937453;29;20853;-65
2023/04/11 06:22:53;;;;;;;10.93;4.88;;;;;;;;;;4952220;28;20407;-65
2023/04/11 06:25:23;;;;;;;11.38;3.95;;;;;;;;;;4937882;28;20406;-65
2023/04/11 06:27:53;;;;;;;8.25;3.80;;;;;;;;;;4974398;28;20541;-65
2023/04/11 06:30:23;;;;;;;8.60;3.83;;;;;;;;;;4957937;28;20054;-65
2023/04/11 06:32:52;;;;;;;9.73;3.75;;;;;;;;;;4992804;28;20061;-65
2023/04/11 06:35:23;;;;;;;9.02;3.67;;;;;;;;;;5032301;28;20060;-65
2023/04/11 06:37:53;;;;;;;14.77;4.13;;;;;;;;;;5031452;28;20433;-65
2023/04/11 06:40:23;;;;;;;7.97;3.33;;;;;;;;;;5032063;28;20052;-65
2023/04/11 06:42:54;;;;;;;8.20;3.42;;;;;;;;;;5032259;28;20045;-65
2023/04/11 06:45:24;;;;;;;10.82;3.90;;;;;;;;;;5032296;28;20049;-65
2023/04/11 06:47:53;;;;;;;9.90;4.40;;;;;;;;;;5032032;28;20125;-65
2023/04/11 06:50:23;;;;;;;11.27;4.10;;;;;;;;;;5032180;28;20049;-65
2023/04/11 06:52:53;;;;;;;10.27;4.18;;;;;;;;;;4997504;28;20591;-65
2023/04/11 06:55:22;;;;;;;11.85;5.03;;;;;;;;;;4965718;28;20045;-65
2023/04/11 06:57:53;;;;;;;19.10;5.90;;;;;;;;;;4982444;28;20046;-65
2023/04/11 07:00:23;;;;;;;17.40;5.85;;;;;;;;;;5031687;28;20052;-65
2023/04/11 07:02:53;;;;;;;14.23;5.28;;;;;;;;;;5032063;28;20052;-66
2023/04/11 07:05:25;;;;;;;13.85;3.83;;;;;;;;;;5031855;28;20513;-65
2023/04/11 07:07:55;;;;;;;11.60;4.18;;;;;;;;;;4964813;28;20061;-65
2023/04/11 07:10:24;;;;;;;11.07;4.10;;;;;;;;;;5031698;28;20056;-65
2023/04/11 07:12:55;;;;;;;11.48;3.90;;;;;;;;;;5031662;28;20050;-65
2023/04/11 07:15:26;;;;;;;10.50;4.22;;;;;;;;;;4997261;28;20053;-65
2023/04/11 07:17:56;;;;;;;12.02;3.90;;;;;;;;;;5031822;28;20041;-65
2023/04/11 07:20:26;;;;;;;7.85;3.50;;;;;;;;;;5031414;28;20041;-65
2023/04/11 07:22:56;;;;;;;7.38;3.33;;;;;;;;;;4996884;28;20061;-65
2023/04/11 07:25:29;;;;;;;11.10;4.30;;;;;;;;;;4980408;28;20076;-65
2023/04/11 07:28:06;;;;;;;6.95;3.40;;;;;;;;;;5031731;28;20049;-65
2023/04/11 07:30:36;;;;;;;8.15;3.63;;;;;;;;;;4989679;28;20411;-65
2023/04/11 07:33:05;;;;;;;10.20;3.42;;;;;;;;;;4989632;28;20402;-65
2023/04/11 07:35:35;;;;;;;8.95;3.50;;;;;;;;;;4989514;28;20101;-65
2023/04/11 07:38:08;;;;;;;10.20;3.97;;;;;;;;;;4941524;28;20498;-65
2023/04/11 07:40:38;;;;;;;12.85;4.38;;;;;;;;;;4989574;28;20058;-65
2023/04/11 07:43:08;;;;;;;9.57;3.60;;;;;;;;;;4989911;28;20058;-65
2023/04/11 07:45:39;;;;;;;10.20;3.80;;;;;;;;;;4989517;28;20054;-65
2023/04/11 07:48:10;;;;;;;12.02;4.35;;;;;;;;;;4942722;28;20065;-65
2023/04/11 07:50:40;;;;;;;6.90;3.60;;;;;;;;;;4996091;28;20050;-65
2023/04/11 07:53:10;;;;;;;12.63;4.25;;;;;;;;;;4996224;28;20162;-65
2023/04/11 07:55:40;;;;;;;10.32;3.90;;;;;;;;;;4996138;28;20058;-65
2023/04/11 07:58:10;;;;;;;9.30;3.72;;;;;;;;;;4995883;28;20063;-65
2023/04/11 08:00:40;;;;;;;6.90;3.08;;;;;;;;;;4995811;28;20580;-65
2023/04/11 08:03:12;;;;;;;10.45;3.70;;;;;;;;;;4996424;28;20050;-65
2023/04/11 08:05:42;;;;;;;10.38;3.83;;;;;;;;;;4963487;28;20064;-65
2023/04/11 08:08:12;;;;;;;8.90;3.63;;;;;;;;;;4977144;28;20080;-65
2023/04/11 08:10:42;;;;;;;7.65;3.45;;;;;;;;;;4979113;28;20046;-65
2023/04/11 08:13:11;;;;;;;8.60;3.33;;;;;;;;;;4948361;28;20073;-65
2023/04/11 08:15:41;;;;;;;7.43;4.05;;;;;;;;;;4957107;28;20047;-65
2023/04/11 08:18:11;;;;;;;8.85;3.35;;;;;;;;;;4957053;28;20059;-65
2023/04/11 08:20:41;;;;;;;14.65;3.72;;;;;;;;;;4929342;28;20085;-65
2023/04/11 08:23:11;;;;;;;8.43;3.63;;;;;;;;;;4976135;28;20047;-65
2023/04/11 08:25:41;;;;;;;7.13;3.53;;;;;;;;;;4976220;28;20062;-65
2023/04/11 08:28:11;;;;;;;8.95;3.22;;;;;;;;;;4928016;28;20061;-65
2023/04/11 08:30:41;;;;;;;8.32;3.50;;;;;;;;;;4944960;28;20058;-65
2023/04/11 08:33:11;;;;;;;8.27;3.10;;;;;;;;;;4976273;28;20059;-65
2023/04/11 08:35:41;;;;;;;8.65;3.33;;;;;;;;;;4976439;28;20055;-65
2023/04/11 08:38:12;;;;;;;6.97;3.40;;;;;;;;;;4944513;28;20055;-65
2023/04/11 08:40:41;;;;;;;7.80;3.35;;;;;;;;;;4976079;28;20051;-65
2023/04/11 08:43:11;;;;;;;9.40;3.33;;;;;;;;;;4976526;28;20050;-65
2023/04/11 08:45:42;;;;;;;9.60;2.90;;;;;;;;;;4929106;28;20081;-65
2023/04/11 08:48:12;;;;;;;6.30;3.58;;;;;;;;;;4973686;28;20058;-65
2023/04/11 08:50:44;;;;;;;10.10;3.53;;;;;;;;;;4963786;28;20506;-66
2023/04/11 08:53:15;;;;;;;7.35;3.67;;;;;;;;;;4939180;28;20530;-65
2023/04/11 08:55:48;;;;;;;8.38;3.53;;;;;;;;;;4948356;28;20086;-65
2023/04/11 08:58:19;;;;;;;15.27;3.72;;;;;;;;;;4995278;28;20506;-65
2023/04/11 09:00:49;;;;;;;10.88;4.10;;;;;;;;;;4944056;28;20046;-65
2023/04/11 09:03:19;;;;;;;10.98;3.88;;;;;;;;;;4992238;28;20057;-65
2023/04/11 09:05:49;;;;;;;10.07;4.40;;;;;;;;;;4992355;28;20058;-65
2023/04/11 09:08:19;;;;;;;9.75;4.20;;;;;;;;;;4959876;28;20062;-65
2023/04/11 09:10:49;;;;;;;8.40;4.05;;;;;;;;;;4959855;28;20051;-65
2023/04/11 09:13:21;;;;;;;9.32;4.50;;;;;;;;;;4976305;28;20065;-65
2023/04/11 09:16:11;;;;;;;12.63;4.07;;;;;;;;;;4992397;28;20061;-65
2023/04/11 09:18:45;;;;;;;8.80;4.07;;;;;;;;;;4992079;28;20083;-65
2023/04/11 09:21:17;;;;;;;11.65;4.00;;;;;;;;;;4991869;28;20042;-65
2023/04/11 09:23:47;;;;;;;8.55;3.47;;;;;;;;;;4991819;28;20519;-65
2023/04/11 09:26:28;;;;;;;7.50;2.85;;;;;;;;;;5020620;28;20068;-65
2023/04/11 09:28:58;;;;;;;9.95;3.53;;;;;;;;;;5033726;28;20056;-65
2023/04/11 09:31:42;;;;;;;6.55;3.58;;;;;;;;;;5014729;28;20061;-65
2023/04/11 09:34:12;;;;;;;8.68;3.47;;;;;;;;;;5014574;28;20050;-65
2023/04/11 09:36:42;;;;;;;11.23;3.78;;;;;;;;;;4958925;28;20078;-65
2023/04/11 09:39:19;;;;;;;8.73;3.13;;;;;;;;;;4974979;28;20565;-65
2023/04/11 09:41:49;;;;;;;12.43;3.75;;;;;;;;;;4971716;28;20047;-65
2023/04/11 09:44:19;;;;;;;7.20;3.83;;;;;;;;;;4940134;28;20047;-65
2023/04/11 09:46:58;;;;;;;13.88;3.95;;;;;;;;;;4955600;28;20080;-65
2023/04/11 09:49:30;;;;;;;10.35;3.60;;;;;;;;;;4955743;28;20062;-66
2023/04/11 09:52:00;;;;;;;9.88;3.97;;;;;;;;;;4939413;28;20522;-66
2023/04/11 09:54:32;;;;;;;12.18;3.92;;;;;;;;;;4940293;28;20059;-66
2023/04/11 09:57:04;;;;;;;11.43;4.25;;;;;;;;;;4955306;28;20495;-66
2023/04/11 09:59:37;;;;;;;12.27;3.72;;;;;;;;;;4888293;29;20072;-66
2023/04/11 10:02:07;;;;;;;11.43;3.55;;;;;;;;;;4933107;29;20090;-66
2023/04/11 10:04:39;;;;;;;13.93;3.80;;;;;;;;;;4933235;29;20512;-65
2023/04/11 10:07:15;;;;;;;8.32;3.83;;;;;;;;;;4901369;29;20063;-66
2023/04/11 10:09:46;;;;;;;10.80;4.85;;;;;;;;;;4901982;29;20078;-66
2023/04/11 10:12:32;;;;;;;10.63;4.63;;;;;;;;;;4876064;29;20064;-66
2023/04/11 10:15:09;;;;;;;7.93;3.63;;;;;;;;;;4875902;29;20064;-65
2023/04/11 10:17:42;;;;;;;8.02;3.92;;;;;;;;;;4894956;29;20064;-66
2023/04/11 10:20:31;;;;;;;11.32;4.70;;;;;;;;;;4878861;29;20074;-65
2023/04/11 10:23:01;;;;;;;15.45;5.35;;;;;;;;;;4913824;29;20532;-65
2023/04/11 10:25:46;;;;;;;15.55;6.00;;;;;;;;;;4867099;29;20539;-65
2023/04/11 10:28:32;;;;;;;;;;;;;;;;;;4914428;29;20501;-65
2023/04/11 10:31:04;;;;;;;20.05;5.97;;;;;;;;;;4913515;29;19923;-65
2023/04/11 10:33:34;;;;;;;;;;;;;;;;;;4914080;29;20070;-66
2023/04/11 10:36:11;;;;;;;16.33;6.40;;;;;;;;;;4899544;29;20319;-65
2023/04/11 10:38:44;;;;;;;16.33;6.78;;;;;;;;;;4951801;29;20054;-66
2023/04/11 10:41:26;;;;;;;14.77;6.57;;;;;;;;;;4951804;28;20443;-65
2023/04/11 10:44:22;;;;;;;18.52;6.38;;;;;;;;;;4919823;29;20055;-65
2023/04/11 10:46:54;;;;;;;19.67;7.15;;;;;;;;;;4905962;29;20067;-66
2023/04/11 10:49:39;;;;;;;17.83;8.05;;;;;;;;;;4912155;29;20059;-66
2023/04/11 10:52:24;;;;;;;21.05;9.18;;;;;;;;;;4951559;29;20063;-66
2023/04/11 10:54:54;;;;;;;23.92;9.63;;;;;;;;;;4951318;29;20431;-65
2023/04/11 10:57:24;;;;;;;17.83;8.27;;;;;;;;;;4952807;28;20054;-66
2023/04/11 10:59:57;;;;;;;16.48;7.47;;;;;;;;;;4970747;28;20399;-65
2023/04/11 11:02:36;;;;;;;14.52;6.65;;;;;;;;;;4922411;28;20047;-65
2023/04/11 11:05:17;;;;;;;13.20;5.22;;;;;;;;;;4891048;28;20050;-65
2023/04/11 11:07:48;;;;;;;11.30;4.70;;;;;;;;;;4970453;28;20089;-65
2023/04/11 11:10:38;;;;;;;10.30;4.85;;;;;;;;;;4970617;28;20451;-65
2023/04/11 11:13:09;;;;;;;14.63;6.15;;;;;;;;;;4970420;28;20059;-65
2023/04/11 11:15:49;;;;;;;15.27;7.22;;;;;;;;;;4970739;28;20046;-65
2023/04/11 11:18:20;;;;;;;14.20;6.78;;;;;;;;;;4931894;29;20056;-65
2023/04/11 11:20:55;;;;;;;19.30;7.43;;;;;;;;;;4916360;29;20054;-65
2023/04/11 11:23:26;;;;;;;21.15;7.35;;;;;;;;;;4950631;28;20111;-65
2023/04/11 11:25:57;;;;;;;14.75;6.30;;;;;;;;;;4953921;28;20058;-65
2023/04/11 11:28:28;;;;;;;11.73;5.60;;;;;;;;;;4901040;29;20565;-66
2023/04/11 11:30:58;;;;;;;13.40;5.35;;;;;;;;;;4931808;29;20047;-65
2023/04/11 11:33:28;;;;;;;19.02;6.30;;;;;;;;;;4875154;29;20057;-65
2023/04/11 11:36:00;;;;;;;12.57;5.95;;;;;;;;;;4844275;29;20053;-65
2023/04/11 11:38:30;;;;;;;10.48;4.63;;;;;;;;;;4859636;29;20057;-66
2023/04/11 11:41:01;;;;;;;11.98;4.95;;;;;;;;;;4874978;29;20541;-65
2023/04/11 11:43:35;;;;;;;9.90;4.80;;;;;;;;;;4859503;29;20064;-66
2023/04/11 11:46:08;;;;;;;7.07;2.70;;;;;;;;;;4874796;29;20067;-65
2023/04/11 11:48:39;;;;;;;11.50;5.50;;;;;;;;;;4874646;29;20570;-66
2023/04/11 11:51:09;;;;;;;5.55;2.10;;;;;;;;;;4855988;29;20061;-65
2023/04/11 11:53:38;;;;;;;4.57;2.20;;;;;;;;;;4867301;29;20069;-65
2023/04/11 11:56:13;;;;;;;3.40;1.58;;;;;;;;;;4870002;29;20805;-66
2023/04/11 11:58:43;;;;;;;2.58;1.23;;;;;;;;;;4906729;29;20548;-65
2023/04/11 12:01:14;;;;;;;2.20;1.10;;;;;;;;;;4859087;29;20060;-65
2023/04/11 12:03:50;;;;;;;4.95;1.52;;;;;;;;;;4865849;29;20068;-65
2023/04/11 12:06:20;;;;;;;2.90;1.55;;;;;;;;;;4948175;28;20426;-65
2023/04/11 12:08:52;;;;;;;7.53;1.52;;;;;;;;;;4969642;28;20054;-66
2023/04/11 12:11:24;;;;;;;4.55;1.58;;;;;;;;;;5006473;28;20045;-65
2023/04/11 12:13:54;;;;;;;3.15;1.67;;;;;;;;;;5030222;28;20041;-64
2023/04/11 12:16:24;;;;;;;3.85;1.58;;;;;;;;;;4967361;28;20042;-65
2023/04/11 12:18:58;;;;;;;3.50;1.67;;;;;;;;;;4964260;28;20054;-65
2023/04/11 12:21:29;;;;;;;2.70;1.25;;;;;;;;;;5025468;28;20041;-65
2023/04/11 12:24:00;;;;;;;2.67;1.50;;;;;;;;;;4993646;28;20510;-65
2023/04/11 12:26:30;;;;;;;4.63;1.55;;;;;;;;;;5012434;28;20466;-65
2023/04/11 12:29:02;;;;;;;6.38;2.10;;;;;;;;;;4997333;28;20401;-64
2023/04/11 12:31:32;;;;;;;3.60;1.40;;;;;;;;;;5030182;28;20045;-64
2023/04/11 12:34:01;;;;;;;5.13;1.63;;;;;;;;;;5013260;28;20054;-64
2023/04/11 12:36:32;;;;;;;7.00;1.98;;;;;;;;;;4940708;28;20059;-67
2023/04/11 12:39:02;;;;;;;2.65;1.27;;;;;;;;;;4990988;28;20054;-66
2023/04/11 12:41:32;;;;;;;3.15;1.88;;;;;;;;;;4975859;28;20054;-67
2023/04/11 12:44:02;;;;;;;4.13;1.35;;;;;;;;;;4989578;28;20051;-67
2023/04/11 12:46:32;;;;;;;3.50;2.13;;;;;;;;;;4944065;28;20066;-67
2023/04/11 12:49:02;;;;;;;4.60;1.52;;;;;;;;;;4975059;28;20054;-67
2023/04/11 12:51:32;;;;;;;5.00;1.10;;;;;;;;;;4953673;29;20059;-66
2023/04/11 12:54:03;;;;;;;3.67;1.33;;;;;;;;;;4937639;29;20047;-67
2023/04/11 12:56:33;;;;;;;5.05;1.70;;;;;;;;;;4917681;29;20058;-67
2023/04/11 12:59:03;;;;;;;2.95;1.30;;;;;;;;;;4919253;29;20532;-66
2023/04/11 13:01:33;;;;;;;4.75;1.75;;;;;;;;;;4902727;29;20064;-66
2023/04/11 13:04:02;;;;;;;3.00;1.52;;;;;;;;;;4936739;29;20059;-66
2023/04/11 13:06:33;;;;;;;3.10;1.50;;;;;;;;;;4913950;29;20059;-64
2023/04/11 13:09:06;;;;;;;2.83;1.38;;;;;;;;;;4936537;29;20556;-63
2023/04/11 13:11:36;;;;;;;2.63;1.38;;;;;;;;;;4887081;29;20056;-64
2023/04/11 13:14:06;;;;;;;2.95;1.70;;;;;;;;;;4955844;28;20434;-64
2023/04/11 13:16:36;;;;;;;4.50;2.17;;;;;;;;;;4908192;28;20431;-64
2023/04/11 13:19:05;;;;;;;4.20;1.65;;;;;;;;;;4971920;28;20053;-61
2023/04/11 13:21:36;;;;;;;15.75;4.32;;;;;;;;;;4972692;28;20058;-62
2023/04/11 13:24:06;;;;;;;11.15;2.58;;;;;;;;;;4941280;28;20090;-61
2023/04/11 13:26:37;;;;;;;2.75;1.40;;;;;;;;;;4972112;28;20061;-62
2023/04/11 13:29:07;;;;;;;7.80;4.72;;;;;;;;;;5000286;28;20632;-62
2023/04/11 13:31:36;;;;;;;3.53;1.90;;;;;;;;;;5033335;28;20432;-62
2023/04/11 13:34:06;;;;;;;4.78;1.60;;;;;;;;;;5033241;28;20041;-64
2023/04/11 13:36:36;;;;;;;5.22;2.63;;;;;;;;;;5026007;28;20041;-64
2023/04/11 13:39:06;;;;;;;4.47;2.65;;;;;;;;;;4989201;28;20057;-64
2023/04/11 13:41:37;;;;;;;3.50;1.90;;;;;;;;;;5014711;28;20049;-64
2023/04/11 13:44:07;;;;;;;3.47;1.42;;;;;;;;;;5028553;28;20053;-64
2023/04/11 13:46:36;;;;;;;6.00;2.05;;;;;;;;;;5032919;28;20056;-64
2023/04/11 13:49:06;;;;;;;5.45;1.85;;;;;;;;;;5033321;28;20050;-66
2023/04/11 13:51:36;;;;;;;3.85;1.83;;;;;;;;;;5033085;28;20045;-65
2023/04/11 13:54:06;;;;;;;2.03;1.20;;;;;;;;;;4998021;28;20056;-62
2023/04/11 13:56:35;;;;;;;3.60;1.77;;;;;;;;;;5014266;28;20513;-64
2023/04/11 13:59:06;;;;;;;2.25;1.05;;;;;;;;;;5013424;28;20057;-62
2023/04/11 14:01:36;;;;;;;2.97;1.40;;;;;;;;;;5027554;28;21477;-63
2023/04/11 14:04:06;;;;;;;3.42;1.05;;;;;;;;;;4998427;28;20053;-64
2023/04/11 14:06:38;;;;;;;4.55;2.45;;;;;;;;;;5013265;28;20072;-63
2023/04/11 14:09:08;;;;;;;5.85;2.63;;;;;;;;;;5014794;28;20054;-63
2023/04/11 14:11:40;;;;;;;3.63;1.33;;;;;;;;;;4995754;28;20053;-63
2023/04/11 14:14:10;;;;;;;4.03;1.40;;;;;;;;;;4998299;28;20058;-63
2023/04/11 14:16:39;;;;;;;3.70;1.33;;;;;;;;;;5025586;28;20049;-63
2023/04/11 14:19:11;;;;;;;3.03;1.35;;;;;;;;;;5015103;28;20054;-64
2023/04/11 14:21:40;;;;;;;2.75;1.63;;;;;;;;;;4990859;28;20059;-65
2023/04/11 14:24:13;;;;;;;3.88;1.55;;;;;;;;;;4990635;28;20059;-64
2023/04/11 14:26:43;;;;;;;4.78;2.35;;;;;;;;;;4971127;28;20066;-64
2023/04/11 14:29:12;;;;;;;2.10;1.23;;;;;;;;;;4971150;28;20054;-64
2023/04/11 14:31:43;;;;;;;9.15;4.60;;;;;;;;;;4970670;28;20558;-65
2023/04/11 14:34:13;;;;;;;4.20;1.30;;;;;;;;;;4919114;29;20562;-64
2023/04/11 14:36:43;;;;;;;6.00;3.45;;;;;;;;;;4951067;28;20062;-64
2023/04/11 14:39:14;;;;;;;3.08;1.33;;;;;;;;;;4970932;28;20067;-65
2023/04/11 14:41:43;;;;;;;6.10;1.80;;;;;;;;;;4956919;28;20056;-65
2023/04/11 14:44:15;;;;;;;2.72;1.08;;;;;;;;;;4970670;28;20062;-65
2023/04/11 14:46:45;;;;;;;2.72;1.42;;;;;;;;;;4970183;28;20062;-64
2023/04/11 14:49:14;;;;;;;2.03;1.20;;;;;;;;;;4970994;28;20043;-65
2023/04/11 14:51:44;;;;;;;2.42;1.20;;;;;;;;;;4970905;28;20055;-65
2023/04/11 14:54:14;;;;;;;3.47;1.10;;;;;;;;;;4970835;28;20043;-65
2023/04/11 14:56:44;;;;;;;2.65;1.23;;;;;;;;;;4982428;28;20870;-65
2023/04/11 14:59:14;;;;;;;2.47;1.17;;;;;;;;;;4996736;28;20054;-65
2023/04/11 15:01:44;;;;;;;1.92;1.10;;;;;;;;;;5031422;28;20064;-65
2023/04/11 15:04:14;;;;;;;2.25;0.98;;;;;;;;;;5012115;28;20060;-65
2023/04/11 15:06:44;;;;;;;2.00;1.02;;;;;;;;;;5028458;28;20038;-65